KBGM

Greater Binghamton / Edwin A Link Field Airport

Binghamton, New York, USA
METAR KBGM 260353Z 26003KT 10SM CLR 19/09 A2987 RMK AO2 SLP102 T01940089
Observed Flight Rules
May-26 @ 03:53 UTC (31 minutes ago) Visual Flight Rules
Wind Visibility Clouds
260° at 3 knots 10 miles
  • Clear skies
Temperatures Readings
Current 19°C / 66°F
Dewpoint 9°C / 48°F
Humidity 52%
Altimeter 29.87" Hg
Pressure 1010.2 hPa
Elevation 490
METAR KBGM 260353Z 26003KT 10SM CLR 19/09 A2987 RMK AO2 SLP102 T01940089
Observed Flight Rules
May-26 @ 03:53 UTC
(31 minutes ago)
VFR
Wind Visibility
260° at 3 knots 10 miles
Clouds
  • Clear skies
Temperature Dewpoint
19°C / 66°F 9°C / 48°F
Humidity Altimeter Pressure
52% 29.87" Hg 1010.2 hPa